Time;durP1;ratioP1;P1;durP2;ratioP2;P2;SDS_P1;SDS_P2;PMS_P1;PMS_P2;Temp;Humidity;BMP_temperature;BMP_pressure;BME280_temperature;BME280_humidity;BME280_pressure;Samples;Min_cycle;Max_cycle;Signal;HPM_P1;HPM_P2
2022/10/13 00:01:43;;;;;;;15.95;9.18;;;13.30;99.10;;;;;;5016894;28;20487;-84
2022/10/13 00:04:09;;;;;;;14.23;7.85;;;13.30;99.20;;;;;;5012104;28;20108;-83
2022/10/13 00:06:34;;;;;;;14.65;9.20;;;13.30;99.30;;;;;;4980913;28;20026;-84
2022/10/13 00:09:00;;;;;;;16.25;8.05;;;13.30;99.40;;;;;;4995635;28;20475;-83
2022/10/13 00:11:28;;;;;;;14.85;7.93;;;13.30;99.40;;;;;;5021723;28;20114;-84
2022/10/13 00:14:00;;;;;;;18.40;9.45;;;13.30;99.60;;;;;;5021757;28;20053;-84
2022/10/13 00:16:26;;;;;;;18.33;9.35;;;13.30;99.60;;;;;;5028353;28;20022;-84
2022/10/13 00:18:52;;;;;;;18.45;9.55;;;13.30;99.70;;;;;;5015020;28;20033;-84
2022/10/13 00:21:22;;;;;;;18.50;9.05;;;13.40;99.80;;;;;;5014288;28;20018;-84
2022/10/13 00:23:49;;;;;;;15.32;8.68;;;13.40;99.90;;;;;;5014217;28;20075;-84
2022/10/13 00:26:16;;;;;;;16.92;9.70;;;13.40;99.90;;;;;;5029742;28;20025;-84
2022/10/13 00:28:42;;;;;;;12.38;7.82;;;13.40;99.90;;;;;;5023373;28;20375;-83
2022/10/13 00:31:17;;;;;;;15.30;8.95;;;13.40;99.90;;;;;;5020208;28;20022;-83
2022/10/13 00:33:42;;;;;;;14.45;8.13;;;13.50;99.90;;;;;;5009449;28;20029;-84
2022/10/13 00:36:08;;;;;;;15.35;9.45;;;13.40;99.90;;;;;;5021075;28;20030;-84
2022/10/13 00:38:46;;;;;;;12.80;8.80;;;13.40;99.90;;;;;;5013828;28;20025;-84
2022/10/13 00:41:12;;;;;;;16.70;9.18;;;13.40;99.90;;;;;;5013732;28;20029;-84
2022/10/13 00:43:59;;;;;;;16.55;9.25;;;13.50;99.90;;;;;;4997450;28;20383;-83
2022/10/13 00:46:35;;;;;;;15.38;8.82;;;13.50;99.90;;;;;;5013780;28;20471;-83
2022/10/13 00:49:13;;;;;;;16.25;9.90;;;13.40;99.90;;;;;;5021979;28;20014;-83
2022/10/13 00:51:43;;;;;;;14.07;9.20;;;13.50;99.90;;;;;;5019098;28;20091;-83
2022/10/13 00:54:22;;;;;;;17.33;9.43;;;13.50;99.90;;;;;;5020763;28;20386;-83
2022/10/13 00:56:50;;;;;;;13.63;8.95;;;13.50;99.90;;;;;;5033681;28;20140;-83
2022/10/13 00:59:23;;;;;;;13.77;9.05;;;13.50;99.90;;;;;;5004632;28;20029;-83
2022/10/13 01:01:51;;;;;;;14.32;8.95;;;13.50;99.90;;;;;;5019115;28;20022;-83
2022/10/13 01:04:21;;;;;;;18.63;9.10;;;13.50;99.90;;;;;;5013302;28;20018;-83
2022/10/13 01:06:47;;;;;;;14.73;9.32;;;13.50;99.90;;;;;;5014686;28;20409;-83
2022/10/13 01:09:13;;;;;;;14.57;8.57;;;13.50;99.90;;;;;;5013396;28;20037;-83
2022/10/13 01:11:48;;;;;;;14.93;9.10;;;13.50;99.90;;;;;;5013392;28;20455;-84
2022/10/13 01:14:19;;;;;;;14.60;8.90;;;13.50;99.90;;;;;;5027406;28;20049;-83
2022/10/13 01:16:48;;;;;;;;;;;13.50;99.90;;;;;;5026811;28;20040;-84
2022/10/13 01:19:44;;;;;;;18.88;9.73;;;13.50;99.90;;;;;;5022175;28;19913;-83
2022/10/13 01:22:51;;;;;;;14.57;9.02;;;13.50;99.90;;;;;;5023373;28;20075;-84
2022/10/13 01:25:37;;;;;;;15.75;9.07;;;13.50;99.90;;;;;;4944115;28;20056;-84
2022/10/13 01:28:31;;;;;;;13.35;8.63;;;13.50;99.90;;;;;;5047320;28;20092;-83
2022/10/13 01:31:19;;;;;;;14.45;9.63;;;13.50;99.90;;;;;;5033874;28;20034;-83
2022/10/13 01:33:56;;;;;;;14.43;9.98;;;13.50;99.90;;;;;;5033963;28;20025;-83
2022/10/13 01:36:51;;;;;;;17.80;10.35;;;13.50;99.90;;;;;;5051519;28;20017;-83
2022/10/13 01:39:30;;;;;;;16.92;9.70;;;13.50;99.90;;;;;;5040680;28;20401;-83
2022/10/13 01:42:25;;;;;;;17.17;10.25;;;13.50;99.90;;;;;;5041355;28;20075;-83
2022/10/13 01:44:57;;;;;;;14.05;9.68;;;13.50;99.90;;;;;;4998386;28;20087;-84
2022/10/13 01:47:25;;;;;;;15.88;9.63;;;13.40;99.90;;;;;;5035963;28;20425;-83
2022/10/13 01:49:53;;;;;;;15.93;9.27;;;13.50;99.90;;;;;;5033606;28;20067;-83
2022/10/13 01:52:21;;;;;;;18.67;9.88;;;13.50;99.90;;;;;;5025128;28;20029;-83
2022/10/13 01:54:51;;;;;;;19.95;9.38;;;13.40;99.90;;;;;;5034772;28;20538;-83
2022/10/13 01:57:40;;;;;;;17.23;10.80;;;13.50;99.90;;;;;;5005485;28;20029;-84
2022/10/13 02:00:17;;;;;;;14.50;9.13;;;13.50;99.90;;;;;;5032093;28;20068;-83
2022/10/13 02:02:55;;;;;;;16.52;10.02;;;13.50;99.90;;;;;;5015902;28;20033;-83
2022/10/13 02:05:48;;;;;;;18.60;9.18;;;13.50;99.90;;;;;;5015810;28;20033;-83
2022/10/13 02:08:30;;;;;;;18.08;9.65;;;13.50;99.90;;;;;;5029790;28;20060;-83
2022/10/13 02:11:18;;;;;;;16.40;9.15;;;13.50;99.90;;;;;;5015914;28;20108;-83
2022/10/13 02:13:53;;;;;;;12.75;9.02;;;13.50;99.90;;;;;;5012378;28;20499;-83
2022/10/13 02:16:22;;;;;;;15.07;9.38;;;13.50;99.90;;;;;;5014275;28;20033;-84
2022/10/13 02:18:49;;;;;;;18.08;8.77;;;13.50;99.90;;;;;;5010619;28;20026;-83
2022/10/13 02:21:15;;;;;;;14.25;8.82;;;13.50;99.90;;;;;;4996176;28;20475;-84
2022/10/13 02:23:42;;;;;;;16.90;8.77;;;13.50;99.90;;;;;;4995780;28;20022;-83
2022/10/13 02:26:08;;;;;;;11.85;8.45;;;13.50;99.90;;;;;;5005371;28;20467;-84
2022/10/13 02:28:36;;;;;;;17.25;9.88;;;13.50;99.90;;;;;;5030722;28;20033;-83
2022/10/13 02:31:04;;;;;;;14.02;9.00;;;13.50;99.90;;;;;;5022870;28;20104;-83
2022/10/13 02:33:29;;;;;;;15.40;9.18;;;13.50;99.90;;;;;;5018441;28;20033;-84
2022/10/13 02:35:55;;;;;;;18.35;9.88;;;13.50;99.90;;;;;;5019977;28;20479;-83
2022/10/13 02:38:21;;;;;;;14.15;8.75;;;13.50;99.90;;;;;;5017395;28;20034;-83
2022/10/13 02:40:46;;;;;;;17.20;8.82;;;13.50;99.90;;;;;;5010653;28;20032;-84
2022/10/13 02:43:12;;;;;;;13.75;8.23;;;13.50;99.90;;;;;;5019010;28;20109;-83
2022/10/13 02:45:37;;;;;;;16.20;9.07;;;13.50;99.90;;;;;;5026161;28;20021;-83
2022/10/13 02:48:03;;;;;;;17.70;9.57;;;13.50;99.90;;;;;;5018861;28;20029;-82
2022/10/13 02:50:29;;;;;;;16.52;8.00;;;13.50;99.90;;;;;;4999596;28;20026;-83
2022/10/13 02:52:55;;;;;;;17.90;9.00;;;13.50;99.90;;;;;;5012108;28;20108;-83
2022/10/13 02:55:20;;;;;;;19.45;9.63;;;13.50;99.90;;;;;;5017292;28;20380;-83
2022/10/13 02:57:46;;;;;;;23.33;10.52;;;13.50;99.90;;;;;;5015916;28;20029;-83
2022/10/13 03:00:13;;;;;;;18.05;9.23;;;13.50;99.90;;;;;;5018304;28;20452;-83
2022/10/13 03:02:39;;;;;;;15.90;7.97;;;13.50;99.90;;;;;;5026255;28;20061;-83
2022/10/13 03:05:04;;;;;;;15.15;10.07;;;13.50;99.90;;;;;;5016195;28;20022;-84
2022/10/13 03:07:30;;;;;;;17.70;9.35;;;13.50;99.90;;;;;;5028619;28;20017;-83
2022/10/13 03:09:56;;;;;;;19.80;9.00;;;13.50;99.90;;;;;;4979859;28;20425;-83
2022/10/13 03:12:21;;;;;;;19.33;10.20;;;13.50;99.90;;;;;;5006324;28;20026;-83
2022/10/13 03:14:47;;;;;;;17.40;9.15;;;13.50;99.90;;;;;;5012738;28;20087;-83
2022/10/13 03:17:13;;;;;;;18.63;10.18;;;13.60;99.90;;;;;;4983026;28;20128;-83
2022/10/13 03:19:38;;;;;;;17.65;8.40;;;13.50;99.90;;;;;;4995145;28;20044;-83
2022/10/13 03:22:04;;;;;;;15.35;8.80;;;13.50;99.90;;;;;;5004495;28;20022;-84
2022/10/13 03:24:30;;;;;;;17.35;9.02;;;13.60;99.90;;;;;;5025046;28;20064;-84
2022/10/13 03:26:55;;;;;;;17.02;9.55;;;13.60;99.90;;;;;;4996437;28;20039;-83
2022/10/13 03:29:22;;;;;;;20.35;9.15;;;13.60;99.90;;;;;;5023324;28;20025;-83
2022/10/13 03:32:35;;;;;;;14.38;8.93;;;13.60;99.90;;;;;;5034670;28;20026;-83
2022/10/13 03:35:01;;;;;;;19.33;10.25;;;13.60;99.90;;;;;;5014378;28;20033;-84
2022/10/13 03:37:29;;;;;;;15.35;9.65;;;13.60;99.90;;;;;;4982766;28;20021;-84
2022/10/13 03:39:55;;;;;;;17.50;9.48;;;13.50;99.90;;;;;;5016374;28;20026;-84
2022/10/13 03:42:21;;;;;;;16.67;9.30;;;13.60;99.90;;;;;;4986279;28;20092;-84
2022/10/13 03:44:48;;;;;;;19.65;9.48;;;13.60;99.90;;;;;;5011729;28;20438;-84
2022/10/13 03:47:13;;;;;;;14.45;9.88;;;13.60;99.90;;;;;;5024878;28;20036;-83
2022/10/13 03:49:41;;;;;;;17.92;10.07;;;13.60;99.90;;;;;;5020457;28;20026;-84
2022/10/13 03:52:07;;;;;;;17.77;9.93;;;13.60;99.90;;;;;;5018425;28;20045;-84
2022/10/13 03:54:33;;;;;;;17.50;9.63;;;13.60;99.90;;;;;;5005851;28;20101;-83
2022/10/13 03:56:58;;;;;;;18.13;9.70;;;13.60;99.90;;;;;;5014640;28;20459;-83
2022/10/13 03:59:24;;;;;;;14.52;8.95;;;13.60;99.90;;;;;;4995284;28;20056;-84
2022/10/13 04:01:50;;;;;;;16.30;9.13;;;13.60;99.90;;;;;;5011545;28;20045;-84
2022/10/13 04:04:15;;;;;;;17.23;9.63;;;13.60;99.90;;;;;;5014788;28;20034;-83
2022/10/13 04:06:41;;;;;;;18.85;9.50;;;13.60;99.90;;;;;;5014594;28;20022;-83
2022/10/13 04:09:08;;;;;;;17.35;9.40;;;13.60;99.90;;;;;;5014653;28;20030;-84
2022/10/13 04:11:34;;;;;;;19.70;9.65;;;13.60;99.90;;;;;;5026896;28;20029;-84
2022/10/13 04:13:59;;;;;;;17.10;9.18;;;13.60;99.90;;;;;;4996164;28;20125;-84
2022/10/13 04:16:28;;;;;;;17.15;10.02;;;13.60;99.90;;;;;;5006354;28;20172;-83
2022/10/13 04:19:03;;;;;;;20.50;10.18;;;13.60;99.90;;;;;;5014383;28;20040;-83
2022/10/13 04:21:30;;;;;;;16.05;9.00;;;13.60;99.90;;;;;;5014615;28;20062;-84
2022/10/13 04:23:58;;;;;;;15.90;10.07;;;13.60;99.90;;;;;;5015627;28;20045;-84
2022/10/13 04:26:25;;;;;;;19.13;9.80;;;13.60;99.90;;;;;;4998130;28;20053;-84
2022/10/13 04:28:52;;;;;;;15.65;9.55;;;13.60;99.90;;;;;;5033744;23;20053;-87
2022/10/13 04:31:20;;;;;;;17.63;9.30;;;13.60;99.90;;;;;;5035407;28;20133;-87
2022/10/13 04:33:47;;;;;;;18.48;9.43;;;13.60;99.90;;;;;;5022360;28;20101;-88
2022/10/13 04:36:13;;;;;;;22.08;10.75;;;13.60;99.90;;;;;;5013846;28;20113;-87
2022/10/13 04:38:40;;;;;;;18.00;9.57;;;13.60;99.90;;;;;;5014738;28;20033;-87
2022/10/13 04:41:07;;;;;;;14.05;8.70;;;13.60;99.90;;;;;;5019661;28;20068;-88
2022/10/13 04:43:33;;;;;;;19.27;9.70;;;13.60;99.90;;;;;;5034195;28;20026;-88
2022/10/13 04:46:06;;;;;;;20.23;9.75;;;13.70;99.90;;;;;;5034966;28;20025;-88
2022/10/13 04:48:31;;;;;;;18.65;9.25;;;13.60;99.90;;;;;;5033955;28;20493;-88
2022/10/13 04:51:02;;;;;;;20.35;9.60;;;13.60;99.90;;;;;;5004126;28;20113;-87
2022/10/13 04:53:29;;;;;;;16.58;8.73;;;13.60;99.90;;;;;;5013488;28;20048;-88
2022/10/13 04:56:07;;;;;;;16.02;8.73;;;13.70;99.90;;;;;;5027460;28;20029;-88
2022/10/13 04:58:33;;;;;;;17.88;9.88;;;13.60;99.90;;;;;;5019955;28;20476;-87
2022/10/13 05:00:59;;;;;;;15.73;10.07;;;13.60;99.90;;;;;;5014076;28;20475;-87
2022/10/13 05:03:25;;;;;;;15.93;10.07;;;13.60;99.90;;;;;;5027598;28;20041;-87
2022/10/13 05:05:51;;;;;;;17.67;10.73;;;13.60;99.90;;;;;;5004852;28;20025;-87
2022/10/13 05:08:17;;;;;;;23.02;9.63;;;13.60;99.90;;;;;;5013865;28;20053;-88
2022/10/13 05:10:55;;;;;;;19.77;9.52;;;13.60;99.90;;;;;;4986022;28;20467;-89
2022/10/13 05:13:20;;;;;;;17.67;9.50;;;13.60;99.90;;;;;;5021108;28;20060;-88
2022/10/13 05:15:46;;;;;;;19.17;9.93;;;13.60;99.90;;;;;;4985775;28;20057;-87
2022/10/13 05:18:12;;;;;;;16.00;9.45;;;13.60;99.90;;;;;;5013660;28;20022;-87
2022/10/13 05:20:38;;;;;;;15.57;9.50;;;13.60;99.90;;;;;;5026632;28;20034;-87
2022/10/13 05:23:03;;;;;;;17.88;10.45;;;13.60;99.90;;;;;;5025103;28;20033;-87
2022/10/13 05:25:29;;;;;;;15.02;8.55;;;13.60;99.90;;;;;;5004338;28;20112;-87
2022/10/13 05:27:54;;;;;;;21.33;10.57;;;13.60;99.90;;;;;;5017397;28;20029;-87
2022/10/13 05:30:20;;;;;;;16.15;10.27;;;13.60;99.90;;;;;;5029216;28;20402;-87
2022/10/13 05:32:46;;;;;;;21.17;10.02;;;13.60;99.90;;;;;;5013467;28;20041;-87
2022/10/13 05:35:11;;;;;;;20.90;10.80;;;13.60;99.90;;;;;;5019736;28;20026;-87
2022/10/13 05:37:37;;;;;;;20.70;10.25;;;13.60;99.90;;;;;;4996198;28;20041;-87
2022/10/13 05:40:03;;;;;;;24.75;10.90;;;13.60;99.90;;;;;;5015720;28;20430;-87
2022/10/13 05:42:29;;;;;;;19.67;10.60;;;13.60;99.90;;;;;;5028097;28;20092;-87
2022/10/13 05:44:56;;;;;;;18.05;9.90;;;13.60;99.90;;;;;;4996634;28;20029;-87
2022/10/13 05:47:25;;;;;;;17.65;10.18;;;13.60;99.90;;;;;;5005105;28;20221;-87
2022/10/13 05:49:51;;;;;;;20.63;10.38;;;13.60;99.90;;;;;;5015318;28;20018;-87
2022/10/13 05:52:17;;;;;;;15.95;9.07;;;13.60;99.90;;;;;;5023517;28;20037;-87
2022/10/13 05:54:47;;;;;;;19.13;9.65;;;13.60;99.90;;;;;;5015250;28;20033;-87
2022/10/13 05:57:26;;;;;;;15.70;9.77;;;13.70;99.90;;;;;;5032605;28;20513;-87
2022/10/13 06:00:07;;;;;;;15.50;9.65;;;13.70;99.90;;;;;;5029453;28;20026;-87
2022/10/13 06:03:02;;;;;;;21.83;10.23;;;13.70;99.90;;;;;;5023600;28;20029;-85
2022/10/13 06:05:30;;;;;;;18.02;9.80;;;13.70;99.90;;;;;;5028826;28;20060;-85
2022/10/13 06:07:57;;;;;;;19.42;9.73;;;13.70;99.90;;;;;;5033429;28;20029;-85
2022/10/13 06:10:23;;;;;;;17.33;9.45;;;13.70;99.90;;;;;;5013066;28;20121;-85
2022/10/13 06:16:11;;;;;;;16.33;9.82;;;13.70;99.90;;;;;;5032889;28;20028;-85
2022/10/13 06:18:37;;;;;;;15.07;9.02;;;13.70;99.90;;;;;;5033287;28;20025;-86
2022/10/13 06:21:03;;;;;;;16.35;9.80;;;13.70;99.90;;;;;;4996364;28;20061;-85
2022/10/13 06:23:28;;;;;;;16.27;9.35;;;13.70;99.90;;;;;;5027658;28;20030;-85
2022/10/13 06:25:54;;;;;;;18.92;10.23;;;13.70;99.90;;;;;;5012549;28;20034;-85
2022/10/13 06:28:20;;;;;;;16.67;9.43;;;13.70;99.90;;;;;;5031964;28;20041;-85
2022/10/13 06:30:52;;;;;;;15.30;9.10;;;13.70;99.90;;;;;;5032472;28;20018;-85
2022/10/13 06:33:18;;;;;;;19.42;10.00;;;13.70;99.90;;;;;;5017849;28;20112;-85
2022/10/13 06:35:44;;;;;;;18.20;9.48;;;13.70;99.90;;;;;;5033284;28;20021;-86
2022/10/13 06:38:10;;;;;;;22.45;11.18;;;13.80;99.90;;;;;;5014984;28;20105;-85
2022/10/13 06:40:36;;;;;;;17.70;9.82;;;13.80;99.90;;;;;;5022598;28;20026;-84
2022/10/13 06:43:02;;;;;;;25.08;11.48;;;13.80;99.90;;;;;;5033541;28;20032;-85
2022/10/13 06:45:28;;;;;;;16.35;10.27;;;13.70;99.90;;;;;;5026006;28;20479;-85
2022/10/13 06:47:54;;;;;;;21.48;10.60;;;13.80;99.90;;;;;;5026540;28;20036;-85
2022/10/13 06:50:21;;;;;;;19.33;10.27;;;13.70;99.90;;;;;;5031597;28;20021;-85
2022/10/13 06:52:46;;;;;;;18.58;10.85;;;13.80;99.90;;;;;;5031818;28;20021;-84
2022/10/13 06:55:12;;;;;;;20.45;9.70;;;13.80;99.90;;;;;;5031845;28;20075;-84
2022/10/13 06:57:38;;;;;;;18.77;10.43;;;13.80;99.90;;;;;;5033072;28;20053;-86
2022/10/13 07:00:05;;;;;;;18.83;10.90;;;13.80;99.90;;;;;;5016005;28;20426;-84
2022/10/13 07:02:31;;;;;;;22.80;10.75;;;13.80;99.90;;;;;;5024706;28;20407;-84
2022/10/13 07:04:57;;;;;;;18.63;10.70;;;13.80;99.90;;;;;;5011914;28;20037;-85
2022/10/13 07:07:22;;;;;;;22.63;11.70;;;13.80;99.90;;;;;;5014653;28;20048;-85
2022/10/13 07:09:48;;;;;;;19.17;10.88;;;13.80;99.90;;;;;;5031789;28;20116;-85
2022/10/13 07:12:14;;;;;;;19.92;10.68;;;13.80;99.90;;;;;;5015269;28;20100;-85
2022/10/13 07:14:40;;;;;;;21.40;12.15;;;13.80;99.90;;;;;;5031686;28;20021;-85
2022/10/13 07:17:05;;;;;;;20.27;11.38;;;13.80;99.90;;;;;;5021116;28;20080;-85
2022/10/13 07:19:31;;;;;;;18.75;12.43;;;13.80;99.90;;;;;;5018953;28;20030;-85
2022/10/13 07:21:57;;;;;;;19.20;10.95;;;13.80;99.90;;;;;;5035468;28;20113;-85
2022/10/13 07:24:22;;;;;;;19.45;10.38;;;13.80;99.90;;;;;;5031033;28;20491;-85
2022/10/13 07:26:48;;;;;;;20.20;11.75;;;13.80;99.90;;;;;;4989158;28;20099;-85
2022/10/13 07:29:14;;;;;;;19.13;11.15;;;13.80;99.90;;;;;;5030615;28;20473;-85
2022/10/13 07:31:42;;;;;;;24.27;11.40;;;13.80;99.90;;;;;;5018565;28;20039;-84
2022/10/13 07:34:08;;;;;;;19.88;11.27;;;13.80;99.90;;;;;;5036108;28;20024;-84
2022/10/13 07:36:34;;;;;;;20.27;11.43;;;13.80;99.90;;;;;;5012591;28;20026;-86
2022/10/13 07:39:03;;;;;;;19.30;11.07;;;13.90;99.90;;;;;;5011107;28;20035;-85
2022/10/13 07:41:29;;;;;;;25.33;11.00;;;13.90;99.90;;;;;;5018693;28;20025;-84
2022/10/13 07:43:55;;;;;;;20.30;11.85;;;13.90;99.90;;;;;;5035847;28;20166;-85
2022/10/13 07:46:21;;;;;;;18.52;10.20;;;13.90;99.90;;;;;;5018012;28;20052;-85
2022/10/13 07:49:23;;;;;;;20.58;11.27;;;13.90;99.90;;;;;;5017501;28;20022;-85
2022/10/13 07:51:49;;;;;;;24.58;12.15;;;13.90;99.90;;;;;;5035108;28;20067;-86
2022/10/13 07:54:17;;;;;;;23.33;11.25;;;13.90;99.90;;;;;;5034396;28;20080;-85
2022/10/13 07:56:43;;;;;;;19.95;11.38;;;13.90;99.90;;;;;;5018396;28;20025;-85
2022/10/13 07:59:46;;;;;;;20.95;11.68;;;13.90;99.90;;;;;;5028438;28;20034;-86
2022/10/13 08:02:11;;;;;;;19.70;12.02;;;13.90;99.90;;;;;;5034215;28;20475;-84
2022/10/13 08:04:37;;;;;;;22.83;11.95;;;13.90;99.90;;;;;;5034401;28;20038;-86
2022/10/13 08:07:05;;;;;;;20.70;11.80;;;14.00;99.90;;;;;;5021597;28;20037;-86
2022/10/13 08:09:31;;;;;;;19.75;11.45;;;14.00;99.90;;;;;;5033957;28;20368;-85
2022/10/13 08:11:56;;;;;;;16.48;11.68;;;14.00;99.90;;;;;;5034204;28;20045;-86
2022/10/13 08:14:22;;;;;;;22.40;11.93;;;14.00;99.90;;;;;;4998859;28;20029;-86
2022/10/13 08:16:49;;;;;;;17.83;11.93;;;14.00;99.90;;;;;;4992886;28;20079;-87
2022/10/13 08:19:20;;;;;;;21.40;12.25;;;14.00;99.90;;;;;;5001547;28;20518;-86
2022/10/13 08:21:46;;;;;;;23.02;12.57;;;14.10;99.90;;;;;;5034242;28;20033;-86
2022/10/13 08:24:16;;;;;;;18.15;10.50;;;14.10;99.90;;;;;;5001084;28;20120;-87
2022/10/13 08:26:43;;;;;;;22.63;12.38;;;14.10;99.90;;;;;;5034394;28;20022;-86
2022/10/13 08:29:09;;;;;;;21.55;12.93;;;14.10;99.90;;;;;;5033500;28;20052;-85
2022/10/13 08:31:35;;;;;;;22.40;12.38;;;14.10;99.90;;;;;;5033882;28;20429;-86
2022/10/13 08:34:00;;;;;;;23.75;12.23;;;14.10;99.90;;;;;;5035180;28;20025;-86
2022/10/13 08:36:26;;;;;;;22.08;12.88;;;14.20;99.90;;;;;;5034992;28;20041;-86
2022/10/13 08:38:52;;;;;;;22.92;13.07;;;14.20;99.90;;;;;;5024743;28;20032;-85
2022/10/13 08:41:28;;;;;;;20.88;11.80;;;14.20;99.90;;;;;;5032164;28;20034;-86
2022/10/13 08:44:04;;;;;;;17.40;11.95;;;14.30;99.90;;;;;;5035937;28;20352;-85
2022/10/13 08:47:02;;;;;;;17.92;11.68;;;14.30;99.90;;;;;;5036656;28;20082;-86
2022/10/13 08:49:29;;;;;;;22.77;11.57;;;14.30;99.90;;;;;;4964439;28;20103;-86
2022/10/13 08:51:57;;;;;;;26.63;12.95;;;14.30;99.90;;;;;;5013985;28;20083;-86
2022/10/13 08:54:24;;;;;;;19.38;11.70;;;14.40;99.90;;;;;;4993657;28;20033;-85
2022/10/13 08:56:51;;;;;;;22.35;13.02;;;14.40;99.90;;;;;;5016936;28;20021;-86
2022/10/13 08:59:17;;;;;;;22.95;11.85;;;14.40;99.90;;;;;;5032392;28;20379;-85
2022/10/13 09:01:53;;;;;;;18.77;11.90;;;14.40;99.90;;;;;;5032169;28;20032;-86
2022/10/13 09:04:35;;;;;;;24.33;13.05;;;14.40;99.90;;;;;;5023449;28;20061;-86
2022/10/13 09:07:21;;;;;;;24.48;11.90;;;14.50;99.90;;;;;;5033220;28;20151;-84
2022/10/13 09:09:50;;;;;;;20.67;11.88;;;14.50;99.90;;;;;;5021809;28;20022;-84
2022/10/13 09:12:20;;;;;;;18.15;11.45;;;14.60;99.90;;;;;;5018808;28;20104;-84
2022/10/13 09:15:02;;;;;;;20.70;11.32;;;14.60;99.90;;;;;;5034321;28;20056;-84
2022/10/13 09:17:28;;;;;;;21.25;11.85;;;14.60;99.90;;;;;;5034259;28;20092;-84
2022/10/13 09:20:15;;;;;;;21.90;11.13;;;14.70;99.90;;;;;;5032982;28;20067;-84
2022/10/13 09:22:41;;;;;;;23.88;11.77;;;14.70;99.90;;;;;;5013253;28;20423;-84
2022/10/13 09:25:09;;;;;;;20.50;11.13;;;14.80;99.90;;;;;;5025017;28;20029;-84
2022/10/13 09:27:48;;;;;;;21.90;12.00;;;14.80;99.90;;;;;;5034038;28;20100;-84
2022/10/13 09:30:28;;;;;;;18.92;10.85;;;14.90;99.90;;;;;;5033880;28;20042;-84
2022/10/13 09:33:12;;;;;;;17.35;11.57;;;14.90;99.90;;;;;;5019431;28;20403;-85
2022/10/13 09:35:42;;;;;;;21.63;11.18;;;15.00;99.90;;;;;;5032632;28;20032;-85
2022/10/13 09:38:18;;;;;;;20.42;12.35;;;15.00;99.90;;;;;;5032456;28;20037;-84
2022/10/13 09:41:07;;;;;;;19.83;11.57;;;15.00;99.90;;;;;;5020226;28;20022;-84
2022/10/13 09:43:36;;;;;;;20.75;11.40;;;15.00;99.90;;;;;;5032637;28;20364;-84
2022/10/13 09:46:19;;;;;;;20.60;11.45;;;15.10;99.90;;;;;;5032533;28;20022;-84
2022/10/13 09:48:50;;;;;;;18.23;10.80;;;15.10;99.90;;;;;;5033923;28;20026;-85
2022/10/13 09:51:32;;;;;;;19.83;11.02;;;15.10;99.90;;;;;;5033885;28;20063;-85
2022/10/13 09:53:58;;;;;;;20.98;11.73;;;15.10;99.90;;;;;;5032402;28;20091;-85
2022/10/13 09:56:48;;;;;;;23.75;11.48;;;15.20;99.90;;;;;;5034065;28;20057;-85
2022/10/13 09:59:19;;;;;;;16.67;10.70;;;15.20;99.90;;;;;;5032421;28;20104;-85
2022/10/13 10:01:48;;;;;;;21.80;11.20;;;15.20;99.90;;;;;;5032467;28;20025;-85
2022/10/13 10:04:19;;;;;;;17.63;10.85;;;15.30;99.90;;;;;;5008137;28;20029;-85
2022/10/13 10:06:45;;;;;;;20.08;10.55;;;15.30;99.90;;;;;;5028471;28;20025;-84
2022/10/13 10:09:32;;;;;;;22.00;11.82;;;15.30;99.90;;;;;;5026810;28;20472;-85
2022/10/13 10:11:59;;;;;;;17.98;10.57;;;15.40;99.90;;;;;;5029339;28;20029;-85
2022/10/13 10:14:27;;;;;;;16.55;10.25;;;15.40;99.90;;;;;;5032272;28;20044;-85
2022/10/13 10:17:15;;;;;;;20.70;10.98;;;15.50;99.90;;;;;;5033456;28;20029;-84
2022/10/13 10:20:13;;;;;;;18.08;10.13;;;15.40;99.90;;;;;;5022976;28;20545;-84
2022/10/13 10:23:00;;;;;;;22.15;10.57;;;15.50;99.90;;;;;;5033129;28;20026;-85
2022/10/13 10:25:26;;;;;;;17.20;10.77;;;15.50;99.90;;;;;;5033735;28;20371;-85
2022/10/13 10:28:07;;;;;;;17.98;11.20;;;15.50;99.90;;;;;;5034270;28;20018;-85
2022/10/13 10:30:38;;;;;;;20.08;10.82;;;15.60;99.90;;;;;;5018261;28;20041;-85
2022/10/13 10:33:18;;;;;;;;;;;15.60;99.90;;;;;;5032624;28;20060;-85
2022/10/13 10:35:54;;;;;;;22.75;10.70;;;15.60;99.90;;;;;;5031953;28;19905;-84
2022/10/13 10:38:20;;;;;;;17.50;10.25;;;15.50;99.90;;;;;;5033260;28;20487;-85
2022/10/13 10:41:04;;;;;;;20.00;10.95;;;15.50;99.90;;;;;;5030979;28;20068;-85
2022/10/13 10:46:55;;;;;;;18.10;11.50;;;15.60;99.90;;;;;;5019548;28;20042;-84
2022/10/13 10:49:41;;;;;;;16.75;10.98;;;15.60;99.90;;;;;;5023519;28;20379;-84
2022/10/13 10:52:14;;;;;;;16.80;10.63;;;15.60;99.90;;;;;;5016845;28;20026;-84
2022/10/13 10:55:05;;;;;;;20.20;10.85;;;15.60;99.90;;;;;;5030753;28;20021;-84
2022/10/13 10:57:51;;;;;;;16.48;9.55;;;15.60;99.90;;;;;;5026273;28;20506;-84
2022/10/13 11:00:20;;;;;;;21.38;10.80;;;15.60;99.90;;;;;;5035622;28;20059;-84
2022/10/13 11:02:52;;;;;;;19.48;10.55;;;15.60;99.90;;;;;;5025338;28;20376;-85
2022/10/13 11:05:18;;;;;;;16.83;11.60;;;15.60;99.90;;;;;;5032500;28;20029;-85
2022/10/13 11:07:53;;;;;;;22.35;11.07;;;15.60;99.90;;;;;;5010743;28;20022;-85
2022/10/13 11:10:20;;;;;;;23.63;11.77;;;15.60;99.90;;;;;;5018999;28;20022;-84
2022/10/13 11:12:52;;;;;;;19.90;13.30;;;15.60;99.90;;;;;;5036781;28;20071;-84
2022/10/13 11:15:31;;;;;;;21.73;11.98;;;15.60;99.90;;;;;;5036575;28;20025;-85
2022/10/13 11:17:57;;;;;;;20.85;12.88;;;15.50;99.90;;;;;;5036758;28;20109;-85
2022/10/13 11:20:38;;;;;;;20.45;12.88;;;15.50;99.90;;;;;;5021278;28;20053;-84
2022/10/13 11:23:03;;;;;;;20.98;12.82;;;15.50;99.90;;;;;;5035219;28;20025;-84
2022/10/13 11:25:38;;;;;;;20.65;13.10;;;15.40;99.90;;;;;;5035090;28;20057;-85
2022/10/13 11:28:19;;;;;;;21.10;13.85;;;15.40;99.90;;;;;;5034780;28;20027;-84
2022/10/13 11:30:54;;;;;;;24.35;14.07;;;15.30;99.90;;;;;;5021065;28;20442;-86
2022/10/13 11:33:37;;;;;;;22.85;14.48;;;15.30;99.90;;;;;;5035200;28;20018;-87
2022/10/13 11:36:35;;;;;;;22.25;14.40;;;15.30;99.90;;;;;;5031347;28;20483;-87
2022/10/13 11:39:28;;;;;;;21.20;14.32;;;15.20;99.90;;;;;;5029036;28;20108;-87
2022/10/13 11:42:15;;;;;;;23.33;14.63;;;15.10;99.90;;;;;;5021924;28;20022;-86
2022/10/13 11:45:03;;;;;;;24.77;14.70;;;15.10;99.90;;;;;;5035813;28;20025;-86
2022/10/13 11:47:53;;;;;;;22.02;14.65;;;15.10;99.90;;;;;;5035785;28;20474;-86
2022/10/13 11:50:39;;;;;;;22.00;13.05;;;15.00;99.90;;;;;;5020523;28;20487;-85
2022/10/13 11:53:19;;;;;;;20.45;14.77;;;15.00;99.90;;;;;;5030958;28;20056;-86
2022/10/13 11:55:51;;;;;;;23.70;15.63;;;15.00;99.90;;;;;;5015005;28;20120;-86
2022/10/13 11:58:20;;;;;;;28.50;14.85;;;14.90;99.90;;;;;;5019644;28;20029;-85
2022/10/13 12:01:03;;;;;;;24.60;15.75;;;14.90;99.90;;;;;;5035916;28;20021;-85
2022/10/13 12:03:38;;;;;;;21.63;14.70;;;14.90;99.90;;;;;;5034282;28;20022;-85
2022/10/13 12:06:31;;;;;;;23.75;15.25;;;14.90;99.90;;;;;;5023018;28;20075;-85
2022/10/13 12:08:59;;;;;;;21.60;14.73;;;14.90;99.90;;;;;;5023299;28;20014;-86
2022/10/13 12:11:30;;;;;;;26.48;16.33;;;14.90;99.90;;;;;;5034498;28;20036;-86
2022/10/13 12:13:57;;;;;;;20.95;14.45;;;14.90;99.90;;;;;;5034314;28;20028;-86
2022/10/13 12:16:22;;;;;;;27.42;15.05;;;14.90;99.90;;;;;;5005390;28;20472;-86
2022/10/13 12:18:48;;;;;;;27.75;15.50;;;14.90;99.90;;;;;;5017586;28;20025;-86
2022/10/13 12:21:20;;;;;;;23.42;13.85;;;14.80;99.90;;;;;;4998055;28;20030;-86
2022/10/13 12:23:50;;;;;;;24.65;14.60;;;14.90;99.90;;;;;;5032698;28;20083;-86
2022/10/13 12:26:21;;;;;;;22.03;13.77;;;14.90;99.90;;;;;;5034126;28;20398;-86
2022/10/13 12:29:00;;;;;;;24.83;14.57;;;14.90;99.90;;;;;;5035117;28;20544;-86
2022/10/13 12:31:48;;;;;;;25.92;14.65;;;14.90;99.90;;;;;;5035538;28;20025;-86
2022/10/13 12:34:23;;;;;;;22.05;13.30;;;14.90;99.90;;;;;;5029452;28;20115;-86
2022/10/13 12:37:01;;;;;;;20.52;12.77;;;14.90;99.90;;;;;;5014351;28;20026;-87
2022/10/13 12:39:29;;;;;;;23.88;14.80;;;14.90;99.90;;;;;;5020533;28;20439;-87
2022/10/13 12:41:56;;;;;;;19.42;13.82;;;15.00;99.90;;;;;;5021226;28;20509;-87
2022/10/13 12:44:29;;;;;;;26.55;14.25;;;15.00;99.90;;;;;;5034089;28;20057;-87
2022/10/13 12:46:58;;;;;;;19.58;12.55;;;15.00;99.90;;;;;;5033811;28;20017;-86
2022/10/13 12:49:25;;;;;;;21.23;13.10;;;15.00;99.90;;;;;;5034049;28;20544;-86
2022/10/13 12:52:02;;;;;;;22.20;13.27;;;15.00;99.90;;;;;;5033602;28;20021;-87
2022/10/13 12:54:30;;;;;;;23.70;12.95;;;15.00;99.90;;;;;;5015663;28;20041;-87
2022/10/13 12:56:59;;;;;;;20.13;11.98;;;15.00;99.90;;;;;;5010930;28;20434;-86
2022/10/13 12:59:27;;;;;;;19.52;11.65;;;15.00;99.90;;;;;;5028342;28;20099;-86